TimeCST,TemperatureF,Dew PointF,Humidity,Sea Level PressureIn,VisibilityMPH,Wind Direction,Wind SpeedMPH,Gust SpeedMPH,PrecipitationIn,Events,Conditions,WindDirDegrees,DateUTC
12:53 AM,45.0,37.9,76,30.22,10.0,ENE,3.5,-,N/A,,Clear,60,2013-01-08 06:53:00
1:53 AM,46.0,39.0,76,30.23,10.0,NE,3.5,-,N/A,,Mostly Cloudy,50,2013-01-08 07:53:00
2:53 AM,46.0,39.9,79,30.22,10.0,Calm,Calm,-,N/A,,Mostly Cloudy,0,2013-01-08 08:53:00
3:53 AM,46.9,39.9,77,30.22,10.0,ENE,5.8,-,N/A,,Overcast,70,2013-01-08 09:53:00
4:21 AM,48.2,39.2,71,30.22,10.0,East,3.5,-,N/A,,Overcast,80,2013-01-08 10:21:00
4:53 AM,48.0,41.0,77,30.22,10.0,East,3.5,-,N/A,,Overcast,80,2013-01-08 10:53:00
5:53 AM,48.9,41.0,74,30.24,10.0,ENE,4.6,-,N/A,,Overcast,70,2013-01-08 11:53:00
6:53 AM,50.0,42.1,74,30.27,10.0,ENE,4.6,-,N/A,,Overcast,70,2013-01-08 12:53:00
7:27 AM,50.0,42.8,76,30.27,10.0,Calm,Calm,-,N/A,,Overcast,0,2013-01-08 13:27:00
7:45 AM,51.8,42.8,71,30.28,10.0,ENE,3.5,-,N/A,,Overcast,70,2013-01-08 13:45:00
7:53 AM,51.1,43.0,74,30.28,10.0,NE,3.5,-,N/A,,Overcast,50,2013-01-08 13:53:00
8:53 AM,54.0,44.1,69,30.30,10.0,ENE,6.9,-,N/A,,Overcast,60,2013-01-08 14:53:00
9:19 AM,57.2,44.6,63,30.29,10.0,East,5.8,-,N/A,,Scattered Clouds,80,2013-01-08 15:19:00
9:53 AM,59.0,46.9,64,30.30,10.0,ESE,4.6,-,N/A,,Mostly Cloudy,110,2013-01-08 15:53:00
10:28 AM,59.0,48.2,67,30.29,10.0,ENE,6.9,-,N/A,,Overcast,70,2013-01-08 16:28:00
10:53 AM,59.0,48.0,67,30.27,10.0,ENE,3.5,-,N/A,,Overcast,70,2013-01-08 16:53:00
11:53 AM,61.0,48.9,64,30.26,10.0,Calm,Calm,-,N/A,,Overcast,0,2013-01-08 17:53:00
12:53 PM,63.0,51.1,65,30.23,10.0,NNE,3.5,-,N/A,,Overcast,20,2013-01-08 18:53:00
1:06 PM,62.6,51.8,68,30.23,10.0,Calm,Calm,-,N/A,,Overcast,0,2013-01-08 19:06:00
1:53 PM,63.0,51.1,65,30.22,10.0,Calm,Calm,-,N/A,,Overcast,0,2013-01-08 19:53:00
2:53 PM,64.0,52.0,65,30.22,10.0,Calm,Calm,-,N/A,,Overcast,0,2013-01-08 20:53:00
3:53 PM,63.0,53.1,70,30.22,10.0,North,3.5,-,N/A,,Overcast,360,2013-01-08 21:53:00
4:22 PM,62.6,53.6,72,30.22,10.0,North,3.5,-,N/A,,Overcast,10,2013-01-08 22:22:00
4:53 PM,62.1,53.1,72,30.20,10.0,NE,4.6,-,N/A,,Overcast,50,2013-01-08 22:53:00
5:53 PM,60.1,53.1,78,30.21,10.0,Calm,Calm,-,N/A,,Mostly Cloudy,0,2013-01-08 23:53:00
6:50 PM,59.0,53.6,82,30.22,10.0,Calm,Calm,-,N/A,,Mostly Cloudy,0,2013-01-09 00:50:00
6:53 PM,59.0,53.1,81,30.22,10.0,Calm,Calm,-,N/A,,Mostly Cloudy,0,2013-01-09 00:53:00
7:37 PM,60.8,53.6,77,30.21,10.0,NE,3.5,-,N/A,,Overcast,50,2013-01-09 01:37:00
7:53 PM,61.0,53.1,75,30.21,10.0,ENE,5.8,-,N/A,,Overcast,60,2013-01-09 01:53:00
8:53 PM,57.9,53.1,84,30.21,10.0,Calm,Calm,-,N/A,,Partly Cloudy,0,2013-01-09 02:53:00
9:53 PM,57.0,53.1,87,30.22,10.0,ENE,3.5,-,N/A,,Clear,70,2013-01-09 03:53:00
10:15 PM,59.0,53.6,82,30.22,10.0,ENE,4.6,-,N/A,,Mostly Cloudy,60,2013-01-09 04:15:00
10:40 PM,60.8,55.4,82,30.23,10.0,East,4.6,-,N/A,,Partly Cloudy,80,2013-01-09 04:40:00
11:53 PM,61.0,55.0,81,30.22,10.0,ENE,3.5,-,N/A,,Overcast,70,2013-01-09 05:53:00